sensor_id;sensor_type;location;lat;lon;timestamp;P1;durP1;ratioP1;P2;durP2;ratioP2
22480;SDS011;11407;56.964;-2.212;2024-01-15T00:01:45;2.97;;;0.97;;
22480;SDS011;11407;56.964;-2.212;2024-01-15T00:04:10;1.73;;;0.83;;
22480;SDS011;11407;56.964;-2.212;2024-01-15T00:06:36;2.10;;;0.50;;
22480;SDS011;11407;56.964;-2.212;2024-01-15T00:09:01;1.23;;;0.70;;
22480;SDS011;11407;56.964;-2.212;2024-01-15T00:11:26;3.17;;;0.60;;
22480;SDS011;11407;56.964;-2.212;2024-01-15T00:13:52;1.20;;;0.57;;
22480;SDS011;11407;56.964;-2.212;2024-01-15T00:16:17;1.83;;;0.60;;
22480;SDS011;11407;56.964;-2.212;2024-01-15T00:18:42;4.27;;;0.80;;
22480;SDS011;11407;56.964;-2.212;2024-01-15T00:21:08;2.30;;;0.80;;
22480;SDS011;11407;56.964;-2.212;2024-01-15T00:23:33;3.30;;;0.90;;
22480;SDS011;11407;56.964;-2.212;2024-01-15T00:25:58;1.53;;;0.53;;
22480;SDS011;11407;56.964;-2.212;2024-01-15T00:28:23;5.50;;;0.70;;
22480;SDS011;11407;56.964;-2.212;2024-01-15T00:30:49;3.40;;;0.70;;
22480;SDS011;11407;56.964;-2.212;2024-01-15T00:33:14;3.63;;;0.80;;
22480;SDS011;11407;56.964;-2.212;2024-01-15T00:35:39;2.13;;;0.67;;
22480;SDS011;11407;56.964;-2.212;2024-01-15T00:38:05;3.80;;;0.67;;
22480;SDS011;11407;56.964;-2.212;2024-01-15T00:40:30;1.47;;;0.50;;
22480;SDS011;11407;56.964;-2.212;2024-01-15T00:42:55;3.00;;;0.77;;
22480;SDS011;11407;56.964;-2.212;2024-01-15T00:45:21;3.57;;;0.40;;
22480;SDS011;11407;56.964;-2.212;2024-01-15T00:47:46;1.60;;;0.57;;
22480;SDS011;11407;56.964;-2.212;2024-01-15T00:50:12;1.23;;;0.50;;
22480;SDS011;11407;56.964;-2.212;2024-01-15T00:52:37;2.60;;;0.60;;
22480;SDS011;11407;56.964;-2.212;2024-01-15T00:55:02;3.43;;;0.70;;
22480;SDS011;11407;56.964;-2.212;2024-01-15T00:57:28;2.57;;;0.67;;
22480;SDS011;11407;56.964;-2.212;2024-01-15T00:59:53;3.37;;;0.80;;
22480;SDS011;11407;56.964;-2.212;2024-01-15T01:02:18;5.17;;;0.80;;
22480;SDS011;11407;56.964;-2.212;2024-01-15T01:04:44;2.70;;;0.80;;
22480;SDS011;11407;56.964;-2.212;2024-01-15T01:07:09;2.17;;;0.73;;
22480;SDS011;11407;56.964;-2.212;2024-01-15T01:09:34;3.20;;;0.70;;
22480;SDS011;11407;56.964;-2.212;2024-01-15T01:11:59;3.63;;;0.60;;
22480;SDS011;11407;56.964;-2.212;2024-01-15T01:14:24;3.03;;;0.70;;
22480;SDS011;11407;56.964;-2.212;2024-01-15T01:16:50;3.00;;;0.80;;
22480;SDS011;11407;56.964;-2.212;2024-01-15T01:19:15;3.13;;;0.67;;
22480;SDS011;11407;56.964;-2.212;2024-01-15T01:21:40;3.53;;;0.80;;
22480;SDS011;11407;56.964;-2.212;2024-01-15T01:24:06;2.33;;;1.00;;
22480;SDS011;11407;56.964;-2.212;2024-01-15T01:26:31;7.47;;;1.47;;
22480;SDS011;11407;56.964;-2.212;2024-01-15T01:28:56;1.33;;;0.67;;
22480;SDS011;11407;56.964;-2.212;2024-01-15T01:31:22;4.90;;;0.70;;
22480;SDS011;11407;56.964;-2.212;2024-01-15T01:33:47;0.40;;;0.30;;
22480;SDS011;11407;56.964;-2.212;2024-01-15T01:36:13;1.70;;;0.50;;
22480;SDS011;11407;56.964;-2.212;2024-01-15T01:38:39;1.57;;;0.33;;
22480;SDS011;11407;56.964;-2.212;2024-01-15T01:41:04;0.87;;;0.37;;
22480;SDS011;11407;56.964;-2.212;2024-01-15T01:43:30;3.50;;;0.70;;
22480;SDS011;11407;56.964;-2.212;2024-01-15T01:45:55;1.90;;;0.53;;
22480;SDS011;11407;56.964;-2.212;2024-01-15T01:48:21;1.20;;;0.57;;
22480;SDS011;11407;56.964;-2.212;2024-01-15T01:50:47;4.57;;;0.63;;
22480;SDS011;11407;56.964;-2.212;2024-01-15T01:53:12;0.87;;;0.33;;
22480;SDS011;11407;56.964;-2.212;2024-01-15T01:55:37;3.93;;;0.40;;
22480;SDS011;11407;56.964;-2.212;2024-01-15T01:58:03;0.83;;;0.33;;
22480;SDS011;11407;56.964;-2.212;2024-01-15T02:00:29;2.03;;;0.50;;
22480;SDS011;11407;56.964;-2.212;2024-01-15T02:02:55;5.27;;;0.87;;
22480;SDS011;11407;56.964;-2.212;2024-01-15T02:05:22;2.63;;;0.50;;
22480;SDS011;11407;56.964;-2.212;2024-01-15T02:07:47;3.40;;;0.70;;
22480;SDS011;11407;56.964;-2.212;2024-01-15T02:10:13;3.67;;;0.63;;
22480;SDS011;11407;56.964;-2.212;2024-01-15T02:12:38;1.20;;;0.50;;
22480;SDS011;11407;56.964;-2.212;2024-01-15T02:15:03;3.10;;;1.10;;
22480;SDS011;11407;56.964;-2.212;2024-01-15T02:17:29;2.07;;;0.50;;
22480;SDS011;11407;56.964;-2.212;2024-01-15T02:19:54;2.77;;;0.70;;
22480;SDS011;11407;56.964;-2.212;2024-01-15T02:22:20;3.50;;;0.70;;
22480;SDS011;11407;56.964;-2.212;2024-01-15T02:24:45;1.70;;;0.63;;
22480;SDS011;11407;56.964;-2.212;2024-01-15T02:27:10;1.57;;;0.60;;
22480;SDS011;11407;56.964;-2.212;2024-01-15T02:29:35;2.10;;;0.60;;
22480;SDS011;11407;56.964;-2.212;2024-01-15T02:32:04;2.37;;;0.30;;
22480;SDS011;11407;56.964;-2.212;2024-01-15T02:34:31;3.47;;;0.53;;
22480;SDS011;11407;56.964;-2.212;2024-01-15T02:36:56;1.17;;;0.60;;
22480;SDS011;11407;56.964;-2.212;2024-01-15T02:39:21;2.80;;;0.57;;
22480;SDS011;11407;56.964;-2.212;2024-01-15T02:41:47;3.37;;;0.70;;
22480;SDS011;11407;56.964;-2.212;2024-01-15T02:44:12;1.30;;;0.37;;
22480;SDS011;11407;56.964;-2.212;2024-01-15T02:46:37;3.57;;;0.60;;
22480;SDS011;11407;56.964;-2.212;2024-01-15T02:49:02;4.80;;;0.97;;
22480;SDS011;11407;56.964;-2.212;2024-01-15T02:51:28;4.50;;;0.80;;
22480;SDS011;11407;56.964;-2.212;2024-01-15T02:53:53;3.90;;;0.87;;
22480;SDS011;11407;56.964;-2.212;2024-01-15T02:56:18;1.50;;;0.60;;
22480;SDS011;11407;56.964;-2.212;2024-01-15T02:58:43;5.03;;;0.80;;
22480;SDS011;11407;56.964;-2.212;2024-01-15T03:01:08;1.93;;;0.60;;
22480;SDS011;11407;56.964;-2.212;2024-01-15T03:03:34;1.93;;;0.60;;
22480;SDS011;11407;56.964;-2.212;2024-01-15T03:05:59;2.17;;;0.70;;
22480;SDS011;11407;56.964;-2.212;2024-01-15T03:08:24;2.73;;;0.80;;
22480;SDS011;11407;56.964;-2.212;2024-01-15T03:10:49;5.10;;;0.87;;
22480;SDS011;11407;56.964;-2.212;2024-01-15T03:13:15;2.83;;;0.60;;
22480;SDS011;11407;56.964;-2.212;2024-01-15T03:15:40;2.60;;;0.60;;
22480;SDS011;11407;56.964;-2.212;2024-01-15T03:18:05;2.17;;;0.60;;
22480;SDS011;11407;56.964;-2.212;2024-01-15T03:20:31;2.43;;;0.60;;
22480;SDS011;11407;56.964;-2.212;2024-01-15T03:22:56;4.03;;;0.60;;
22480;SDS011;11407;56.964;-2.212;2024-01-15T03:25:21;2.97;;;0.50;;
22480;SDS011;11407;56.964;-2.212;2024-01-15T03:27:46;1.77;;;0.60;;
22480;SDS011;11407;56.964;-2.212;2024-01-15T03:30:12;2.17;;;0.60;;
22480;SDS011;11407;56.964;-2.212;2024-01-15T03:32:37;2.87;;;0.40;;
22480;SDS011;11407;56.964;-2.212;2024-01-15T03:35:02;1.43;;;0.50;;
22480;SDS011;11407;56.964;-2.212;2024-01-15T03:37:28;1.57;;;0.60;;
22480;SDS011;11407;56.964;-2.212;2024-01-15T03:39:53;2.13;;;0.50;;
22480;SDS011;11407;56.964;-2.212;2024-01-15T03:42:18;4.20;;;0.60;;
22480;SDS011;11407;56.964;-2.212;2024-01-15T03:44:43;2.60;;;0.50;;
22480;SDS011;11407;56.964;-2.212;2024-01-15T03:47:09;1.50;;;0.47;;
22480;SDS011;11407;56.964;-2.212;2024-01-15T03:49:34;2.00;;;0.70;;
22480;SDS011;11407;56.964;-2.212;2024-01-15T03:51:59;1.93;;;0.50;;
22480;SDS011;11407;56.964;-2.212;2024-01-15T03:54:24;3.40;;;0.60;;
22480;SDS011;11407;56.964;-2.212;2024-01-15T03:56:50;2.43;;;0.60;;
22480;SDS011;11407;56.964;-2.212;2024-01-15T03:59:15;1.87;;;0.50;;
22480;SDS011;11407;56.964;-2.212;2024-01-15T04:01:41;1.23;;;0.40;;
22480;SDS011;11407;56.964;-2.212;2024-01-15T04:04:06;1.17;;;0.50;;
22480;SDS011;11407;56.964;-2.212;2024-01-15T04:06:31;1.90;;;0.43;;
22480;SDS011;11407;56.964;-2.212;2024-01-15T04:08:56;2.83;;;0.40;;
22480;SDS011;11407;56.964;-2.212;2024-01-15T04:11:22;3.33;;;0.40;;
22480;SDS011;11407;56.964;-2.212;2024-01-15T04:13:47;3.63;;;0.70;;
22480;SDS011;11407;56.964;-2.212;2024-01-15T04:16:12;5.97;;;0.90;;
22480;SDS011;11407;56.964;-2.212;2024-01-15T04:18:38;6.03;;;1.20;;
22480;SDS011;11407;56.964;-2.212;2024-01-15T04:21:06;1.20;;;0.40;;
22480;SDS011;11407;56.964;-2.212;2024-01-15T04:23:32;3.97;;;0.50;;
22480;SDS011;11407;56.964;-2.212;2024-01-15T04:25:57;1.50;;;0.63;;
22480;SDS011;11407;56.964;-2.212;2024-01-15T04:28:22;2.77;;;0.60;;
22480;SDS011;11407;56.964;-2.212;2024-01-15T04:30:47;4.97;;;0.70;;
22480;SDS011;11407;56.964;-2.212;2024-01-15T04:33:13;2.93;;;0.50;;
22480;SDS011;11407;56.964;-2.212;2024-01-15T04:35:38;2.30;;;1.27;;
22480;SDS011;11407;56.964;-2.212;2024-01-15T04:38:03;3.63;;;0.70;;
22480;SDS011;11407;56.964;-2.212;2024-01-15T04:40:29;0.90;;;0.40;;
22480;SDS011;11407;56.964;-2.212;2024-01-15T04:42:54;2.63;;;0.50;;
22480;SDS011;11407;56.964;-2.212;2024-01-15T04:45:19;2.50;;;0.40;;
22480;SDS011;11407;56.964;-2.212;2024-01-15T04:47:47;2.33;;;0.70;;
22480;SDS011;11407;56.964;-2.212;2024-01-15T04:50:12;5.77;;;1.10;;
22480;SDS011;11407;56.964;-2.212;2024-01-15T04:52:38;3.17;;;0.50;;
22480;SDS011;11407;56.964;-2.212;2024-01-15T04:55:03;3.60;;;0.50;;
22480;SDS011;11407;56.964;-2.212;2024-01-15T04:57:28;1.53;;;0.57;;
22480;SDS011;11407;56.964;-2.212;2024-01-15T04:59:54;6.17;;;0.67;;
22480;SDS011;11407;56.964;-2.212;2024-01-15T05:02:19;1.60;;;0.60;;
22480;SDS011;11407;56.964;-2.212;2024-01-15T05:04:44;1.03;;;0.40;;
22480;SDS011;11407;56.964;-2.212;2024-01-15T05:07:09;2.83;;;0.63;;
22480;SDS011;11407;56.964;-2.212;2024-01-15T05:09:35;0.83;;;0.30;;
22480;SDS011;11407;56.964;-2.212;2024-01-15T05:12:00;2.13;;;0.70;;
22480;SDS011;11407;56.964;-2.212;2024-01-15T05:14:25;3.00;;;0.50;;
22480;SDS011;11407;56.964;-2.212;2024-01-15T05:16:50;1.13;;;0.50;;
22480;SDS011;11407;56.964;-2.212;2024-01-15T05:19:16;2.63;;;0.60;;
22480;SDS011;11407;56.964;-2.212;2024-01-15T05:21:41;2.90;;;0.47;;
22480;SDS011;11407;56.964;-2.212;2024-01-15T05:24:07;1.13;;;0.40;;
22480;SDS011;11407;56.964;-2.212;2024-01-15T05:26:32;1.53;;;0.60;;
22480;SDS011;11407;56.964;-2.212;2024-01-15T05:28:58;1.80;;;0.60;;
22480;SDS011;11407;56.964;-2.212;2024-01-15T05:31:23;1.43;;;0.40;;
22480;SDS011;11407;56.964;-2.212;2024-01-15T05:33:48;3.33;;;0.70;;
22480;SDS011;11407;56.964;-2.212;2024-01-15T05:36:13;4.40;;;0.70;;
22480;SDS011;11407;56.964;-2.212;2024-01-15T05:38:39;4.70;;;0.60;;
22480;SDS011;11407;56.964;-2.212;2024-01-15T05:41:04;2.57;;;0.53;;
22480;SDS011;11407;56.964;-2.212;2024-01-15T05:43:30;5.67;;;0.90;;
22480;SDS011;11407;56.964;-2.212;2024-01-15T05:45:55;3.50;;;0.70;;
22480;SDS011;11407;56.964;-2.212;2024-01-15T05:48:20;4.57;;;0.70;;
22480;SDS011;11407;56.964;-2.212;2024-01-15T05:50:45;7.70;;;0.77;;
22480;SDS011;11407;56.964;-2.212;2024-01-15T05:53:11;1.67;;;0.60;;
22480;SDS011;11407;56.964;-2.212;2024-01-15T05:55:36;3.27;;;0.60;;
22480;SDS011;11407;56.964;-2.212;2024-01-15T05:58:02;2.43;;;0.63;;
22480;SDS011;11407;56.964;-2.212;2024-01-15T06:00:28;2.50;;;1.00;;
22480;SDS011;11407;56.964;-2.212;2024-01-15T06:02:53;1.80;;;0.40;;
22480;SDS011;11407;56.964;-2.212;2024-01-15T06:05:18;1.27;;;0.50;;
22480;SDS011;11407;56.964;-2.212;2024-01-15T06:07:44;2.23;;;0.70;;
22480;SDS011;11407;56.964;-2.212;2024-01-15T06:10:09;3.60;;;0.50;;
22480;SDS011;11407;56.964;-2.212;2024-01-15T06:12:34;4.40;;;0.80;;
22480;SDS011;11407;56.964;-2.212;2024-01-15T06:14:59;5.37;;;0.70;;
22480;SDS011;11407;56.964;-2.212;2024-01-15T06:17:25;1.73;;;0.50;;
22480;SDS011;11407;56.964;-2.212;2024-01-15T06:19:50;1.33;;;0.50;;
22480;SDS011;11407;56.964;-2.212;2024-01-15T06:22:15;7.23;;;0.90;;
22480;SDS011;11407;56.964;-2.212;2024-01-15T06:24:41;2.17;;;0.73;;
22480;SDS011;11407;56.964;-2.212;2024-01-15T06:27:06;3.53;;;0.67;;
22480;SDS011;11407;56.964;-2.212;2024-01-15T06:29:31;7.93;;;1.13;;
22480;SDS011;11407;56.964;-2.212;2024-01-15T06:31:57;5.30;;;0.70;;
22480;SDS011;11407;56.964;-2.212;2024-01-15T06:34:22;3.30;;;0.70;;
22480;SDS011;11407;56.964;-2.212;2024-01-15T06:36:47;1.83;;;0.33;;
22480;SDS011;11407;56.964;-2.212;2024-01-15T06:39:12;3.77;;;0.70;;
22480;SDS011;11407;56.964;-2.212;2024-01-15T06:41:38;1.97;;;0.77;;
22480;SDS011;11407;56.964;-2.212;2024-01-15T06:44:12;1.53;;;0.50;;
22480;SDS011;11407;56.964;-2.212;2024-01-15T06:46:43;4.80;;;1.10;;
22480;SDS011;11407;56.964;-2.212;2024-01-15T06:49:09;2.10;;;0.60;;
22480;SDS011;11407;56.964;-2.212;2024-01-15T06:51:34;3.67;;;1.00;;
22480;SDS011;11407;56.964;-2.212;2024-01-15T06:54:00;1.47;;;0.60;;
22480;SDS011;11407;56.964;-2.212;2024-01-15T06:56:25;3.87;;;0.80;;
22480;SDS011;11407;56.964;-2.212;2024-01-15T06:58:50;4.43;;;0.50;;
22480;SDS011;11407;56.964;-2.212;2024-01-15T07:01:16;3.03;;;0.80;;
22480;SDS011;11407;56.964;-2.212;2024-01-15T07:03:41;3.17;;;0.80;;
22480;SDS011;11407;56.964;-2.212;2024-01-15T07:06:06;6.47;;;0.67;;
22480;SDS011;11407;56.964;-2.212;2024-01-15T07:08:31;4.03;;;0.50;;
22480;SDS011;11407;56.964;-2.212;2024-01-15T07:10:57;2.07;;;0.50;;
22480;SDS011;11407;56.964;-2.212;2024-01-15T07:13:22;1.80;;;0.70;;
22480;SDS011;11407;56.964;-2.212;2024-01-15T07:15:47;1.90;;;0.40;;
22480;SDS011;11407;56.964;-2.212;2024-01-15T07:18:12;5.10;;;0.67;;
22480;SDS011;11407;56.964;-2.212;2024-01-15T07:20:38;3.90;;;1.20;;
22480;SDS011;11407;56.964;-2.212;2024-01-15T07:23:03;4.57;;;0.77;;
22480;SDS011;11407;56.964;-2.212;2024-01-15T07:25:29;5.03;;;0.70;;
22480;SDS011;11407;56.964;-2.212;2024-01-15T07:27:54;4.37;;;0.80;;
22480;SDS011;11407;56.964;-2.212;2024-01-15T07:30:19;3.17;;;1.00;;
22480;SDS011;11407;56.964;-2.212;2024-01-15T07:32:46;1.63;;;1.03;;
22480;SDS011;11407;56.964;-2.212;2024-01-15T07:35:12;1.40;;;0.83;;
22480;SDS011;11407;56.964;-2.212;2024-01-15T07:37:37;2.47;;;0.67;;
22480;SDS011;11407;56.964;-2.212;2024-01-15T07:40:02;2.57;;;0.60;;
22480;SDS011;11407;56.964;-2.212;2024-01-15T07:42:29;2.20;;;0.70;;
22480;SDS011;11407;56.964;-2.212;2024-01-15T07:44:54;2.07;;;0.50;;
22480;SDS011;11407;56.964;-2.212;2024-01-15T07:47:20;2.40;;;0.80;;
22480;SDS011;11407;56.964;-2.212;2024-01-15T07:49:45;3.97;;;0.70;;
22480;SDS011;11407;56.964;-2.212;2024-01-15T07:52:10;2.20;;;0.60;;
22480;SDS011;11407;56.964;-2.212;2024-01-15T07:54:37;5.90;;;1.00;;
22480;SDS011;11407;56.964;-2.212;2024-01-15T07:57:03;1.30;;;0.73;;
22480;SDS011;11407;56.964;-2.212;2024-01-15T07:59:28;2.93;;;0.67;;
22480;SDS011;11407;56.964;-2.212;2024-01-15T08:01:54;0.90;;;0.60;;
22480;SDS011;11407;56.964;-2.212;2024-01-15T08:04:19;4.50;;;0.70;;
22480;SDS011;11407;56.964;-2.212;2024-01-15T08:06:44;2.13;;;0.70;;
22480;SDS011;11407;56.964;-2.212;2024-01-15T08:09:10;2.07;;;1.00;;
22480;SDS011;11407;56.964;-2.212;2024-01-15T08:11:35;1.80;;;0.87;;
22480;SDS011;11407;56.964;-2.212;2024-01-15T08:14:01;2.87;;;1.00;;
22480;SDS011;11407;56.964;-2.212;2024-01-15T08:16:26;2.93;;;0.90;;
22480;SDS011;11407;56.964;-2.212;2024-01-15T08:18:52;2.90;;;1.00;;
22480;SDS011;11407;56.964;-2.212;2024-01-15T08:21:17;3.43;;;0.60;;
22480;SDS011;11407;56.964;-2.212;2024-01-15T08:23:42;2.93;;;0.57;;
22480;SDS011;11407;56.964;-2.212;2024-01-15T08:26:08;3.77;;;0.67;;
22480;SDS011;11407;56.964;-2.212;2024-01-15T08:28:34;3.43;;;0.70;;
22480;SDS011;11407;56.964;-2.212;2024-01-15T08:30:59;5.43;;;0.80;;
22480;SDS011;11407;56.964;-2.212;2024-01-15T08:33:24;1.50;;;0.60;;
22480;SDS011;11407;56.964;-2.212;2024-01-15T08:35:49;1.63;;;0.90;;
22480;SDS011;11407;56.964;-2.212;2024-01-15T08:38:15;2.07;;;0.70;;
22480;SDS011;11407;56.964;-2.212;2024-01-15T08:40:40;2.47;;;1.20;;
22480;SDS011;11407;56.964;-2.212;2024-01-15T08:43:05;4.97;;;1.57;;
22480;SDS011;11407;56.964;-2.212;2024-01-15T08:45:31;3.33;;;1.03;;
22480;SDS011;11407;56.964;-2.212;2024-01-15T08:47:57;4.20;;;1.03;;
22480;SDS011;11407;56.964;-2.212;2024-01-15T08:50:22;3.93;;;0.97;;
22480;SDS011;11407;56.964;-2.212;2024-01-15T08:52:47;3.83;;;1.00;;
22480;SDS011;11407;56.964;-2.212;2024-01-15T08:55:12;4.37;;;1.10;;
22480;SDS011;11407;56.964;-2.212;2024-01-15T08:57:38;3.97;;;0.93;;
22480;SDS011;11407;56.964;-2.212;2024-01-15T09:00:03;5.73;;;0.90;;
22480;SDS011;11407;56.964;-2.212;2024-01-15T09:02:29;4.00;;;1.00;;
22480;SDS011;11407;56.964;-2.212;2024-01-15T09:04:54;2.53;;;0.80;;
22480;SDS011;11407;56.964;-2.212;2024-01-15T09:07:19;2.30;;;0.90;;
22480;SDS011;11407;56.964;-2.212;2024-01-15T09:09:44;5.23;;;0.80;;
22480;SDS011;11407;56.964;-2.212;2024-01-15T09:12:10;6.03;;;1.20;;
22480;SDS011;11407;56.964;-2.212;2024-01-15T09:14:35;1.70;;;0.70;;
22480;SDS011;11407;56.964;-2.212;2024-01-15T09:17:00;2.90;;;0.60;;
22480;SDS011;11407;56.964;-2.212;2024-01-15T09:19:26;1.10;;;0.60;;
22480;SDS011;11407;56.964;-2.212;2024-01-15T09:21:52;5.50;;;0.67;;
22480;SDS011;11407;56.964;-2.212;2024-01-15T09:24:17;1.17;;;0.60;;
22480;SDS011;11407;56.964;-2.212;2024-01-15T09:26:42;2.63;;;0.60;;
22480;SDS011;11407;56.964;-2.212;2024-01-15T09:29:08;3.37;;;0.70;;
22480;SDS011;11407;56.964;-2.212;2024-01-15T09:31:35;1.83;;;0.60;;
22480;SDS011;11407;56.964;-2.212;2024-01-15T09:34:00;2.60;;;0.70;;
22480;SDS011;11407;56.964;-2.212;2024-01-15T09:36:27;3.20;;;1.00;;
22480;SDS011;11407;56.964;-2.212;2024-01-15T09:38:52;1.67;;;0.50;;
22480;SDS011;11407;56.964;-2.212;2024-01-15T09:41:17;7.30;;;0.90;;
22480;SDS011;11407;56.964;-2.212;2024-01-15T09:43:43;3.43;;;0.90;;
22480;SDS011;11407;56.964;-2.212;2024-01-15T09:46:08;4.70;;;1.10;;
22480;SDS011;11407;56.964;-2.212;2024-01-15T09:48:34;1.37;;;0.70;;
22480;SDS011;11407;56.964;-2.212;2024-01-15T09:51:01;5.00;;;1.10;;
22480;SDS011;11407;56.964;-2.212;2024-01-15T09:53:26;6.47;;;1.00;;
22480;SDS011;11407;56.964;-2.212;2024-01-15T09:55:52;3.17;;;0.87;;
22480;SDS011;11407;56.964;-2.212;2024-01-15T09:58:18;3.90;;;0.70;;
22480;SDS011;11407;56.964;-2.212;2024-01-15T10:00:43;3.47;;;0.90;;
22480;SDS011;11407;56.964;-2.212;2024-01-15T10:03:09;3.13;;;1.00;;
22480;SDS011;11407;56.964;-2.212;2024-01-15T10:05:36;2.80;;;1.00;;
22480;SDS011;11407;56.964;-2.212;2024-01-15T10:08:01;2.50;;;0.90;;
22480;SDS011;11407;56.964;-2.212;2024-01-15T10:10:27;2.87;;;0.83;;
22480;SDS011;11407;56.964;-2.212;2024-01-15T10:12:52;2.27;;;0.70;;
22480;SDS011;11407;56.964;-2.212;2024-01-15T10:15:21;3.23;;;0.70;;
22480;SDS011;11407;56.964;-2.212;2024-01-15T10:17:47;8.03;;;1.13;;
22480;SDS011;11407;56.964;-2.212;2024-01-15T10:20:12;2.97;;;0.80;;
22480;SDS011;11407;56.964;-2.212;2024-01-15T10:22:41;3.80;;;0.80;;
22480;SDS011;11407;56.964;-2.212;2024-01-15T10:25:09;3.27;;;0.70;;
22480;SDS011;11407;56.964;-2.212;2024-01-15T10:27:35;3.23;;;0.60;;
22480;SDS011;11407;56.964;-2.212;2024-01-15T10:30:00;3.60;;;0.73;;
22480;SDS011;11407;56.964;-2.212;2024-01-15T10:32:27;1.50;;;0.60;;
22480;SDS011;11407;56.964;-2.212;2024-01-15T10:34:52;0.53;;;0.40;;
22480;SDS011;11407;56.964;-2.212;2024-01-15T10:37:18;3.43;;;1.00;;
22480;SDS011;11407;56.964;-2.212;2024-01-15T10:39:44;5.37;;;0.70;;
22480;SDS011;11407;56.964;-2.212;2024-01-15T10:42:11;2.10;;;0.87;;
22480;SDS011;11407;56.964;-2.212;2024-01-15T10:44:36;3.20;;;0.80;;
22480;SDS011;11407;56.964;-2.212;2024-01-15T10:47:01;1.47;;;0.83;;
22480;SDS011;11407;56.964;-2.212;2024-01-15T10:49:27;3.13;;;0.63;;
22480;SDS011;11407;56.964;-2.212;2024-01-15T10:51:54;4.10;;;0.63;;
22480;SDS011;11407;56.964;-2.212;2024-01-15T10:54:19;2.50;;;0.50;;
22480;SDS011;11407;56.964;-2.212;2024-01-15T10:56:46;1.83;;;0.50;;
22480;SDS011;11407;56.964;-2.212;2024-01-15T10:59:11;1.77;;;0.53;;
22480;SDS011;11407;56.964;-2.212;2024-01-15T11:01:37;0.87;;;0.40;;
22480;SDS011;11407;56.964;-2.212;2024-01-15T11:04:03;1.47;;;0.50;;
22480;SDS011;11407;56.964;-2.212;2024-01-15T11:06:28;2.47;;;0.70;;
22480;SDS011;11407;56.964;-2.212;2024-01-15T11:09:05;3.80;;;0.40;;
22480;SDS011;11407;56.964;-2.212;2024-01-15T11:11:34;2.97;;;0.60;;
22480;SDS011;11407;56.964;-2.212;2024-01-15T11:14:00;2.33;;;0.70;;
22480;SDS011;11407;56.964;-2.212;2024-01-15T11:16:25;1.30;;;0.87;;
22480;SDS011;11407;56.964;-2.212;2024-01-15T11:19:12;3.17;;;1.00;;
22480;SDS011;11407;56.964;-2.212;2024-01-15T11:21:41;3.50;;;1.00;;
22480;SDS011;11407;56.964;-2.212;2024-01-15T11:24:07;3.77;;;0.80;;
22480;SDS011;11407;56.964;-2.212;2024-01-15T11:26:45;2.27;;;1.07;;
22480;SDS011;11407;56.964;-2.212;2024-01-15T11:34:19;4.50;;;1.30;;
22480;SDS011;11407;56.964;-2.212;2024-01-15T11:42:02;3.03;;;0.90;;
22480;SDS011;11407;56.964;-2.212;2024-01-15T11:44:30;1.77;;;0.80;;
22480;SDS011;11407;56.964;-2.212;2024-01-15T11:47:03;2.57;;;1.03;;
22480;SDS011;11407;56.964;-2.212;2024-01-15T11:52:12;3.80;;;0.83;;
22480;SDS011;11407;56.964;-2.212;2024-01-15T11:54:40;4.27;;;1.10;;
22480;SDS011;11407;56.964;-2.212;2024-01-15T11:57:09;2.07;;;1.00;;
22480;SDS011;11407;56.964;-2.212;2024-01-15T11:59:35;4.20;;;1.17;;
22480;SDS011;11407;56.964;-2.212;2024-01-15T12:02:01;2.87;;;1.10;;
22480;SDS011;11407;56.964;-2.212;2024-01-15T12:04:27;4.53;;;1.03;;
22480;SDS011;11407;56.964;-2.212;2024-01-15T12:06:52;1.83;;;0.97;;
22480;SDS011;11407;56.964;-2.212;2024-01-15T12:09:20;2.27;;;1.00;;
22480;SDS011;11407;56.964;-2.212;2024-01-15T12:14:27;3.03;;;1.40;;
22480;SDS011;11407;56.964;-2.212;2024-01-15T12:16:54;2.97;;;1.00;;
22480;SDS011;11407;56.964;-2.212;2024-01-15T12:19:19;2.13;;;0.73;;
22480;SDS011;11407;56.964;-2.212;2024-01-15T12:21:45;2.17;;;0.77;;
22480;SDS011;11407;56.964;-2.212;2024-01-15T12:24:10;1.97;;;0.70;;
22480;SDS011;11407;56.964;-2.212;2024-01-15T12:26:35;1.10;;;0.70;;
22480;SDS011;11407;56.964;-2.212;2024-01-15T12:29:01;1.90;;;0.73;;
22480;SDS011;11407;56.964;-2.212;2024-01-15T12:31:27;2.63;;;0.73;;
22480;SDS011;11407;56.964;-2.212;2024-01-15T12:33:52;2.53;;;0.60;;
22480;SDS011;11407;56.964;-2.212;2024-01-15T12:36:21;0.73;;;0.57;;
22480;SDS011;11407;56.964;-2.212;2024-01-15T12:38:46;1.30;;;0.73;;
22480;SDS011;11407;56.964;-2.212;2024-01-15T12:41:11;1.33;;;0.70;;
22480;SDS011;11407;56.964;-2.212;2024-01-15T12:43:36;2.80;;;1.00;;
22480;SDS011;11407;56.964;-2.212;2024-01-15T12:46:02;1.93;;;0.67;;
22480;SDS011;11407;56.964;-2.212;2024-01-15T12:48:27;2.87;;;0.77;;
22480;SDS011;11407;56.964;-2.212;2024-01-15T12:50:52;1.50;;;0.70;;
22480;SDS011;11407;56.964;-2.212;2024-01-15T12:53:17;2.07;;;0.87;;
22480;SDS011;11407;56.964;-2.212;2024-01-15T12:55:43;2.93;;;0.83;;
22480;SDS011;11407;56.964;-2.212;2024-01-15T12:58:08;1.50;;;0.70;;
22480;SDS011;11407;56.964;-2.212;2024-01-15T13:00:34;2.30;;;0.70;;
22480;SDS011;11407;56.964;-2.212;2024-01-15T13:02:59;2.73;;;0.77;;
22480;SDS011;11407;56.964;-2.212;2024-01-15T13:05:25;2.13;;;0.70;;
22480;SDS011;11407;56.964;-2.212;2024-01-15T13:07:52;2.23;;;0.70;;
22480;SDS011;11407;56.964;-2.212;2024-01-15T13:10:17;1.70;;;0.90;;
22480;SDS011;11407;56.964;-2.212;2024-01-15T13:12:42;2.33;;;0.73;;
22480;SDS011;11407;56.964;-2.212;2024-01-15T13:15:08;1.77;;;1.00;;
22480;SDS011;11407;56.964;-2.212;2024-01-15T13:17:36;4.70;;;0.97;;
22480;SDS011;11407;56.964;-2.212;2024-01-15T13:20:02;5.03;;;1.13;;
22480;SDS011;11407;56.964;-2.212;2024-01-15T13:22:28;3.77;;;1.00;;
22480;SDS011;11407;56.964;-2.212;2024-01-15T13:24:57;3.93;;;1.53;;
22480;SDS011;11407;56.964;-2.212;2024-01-15T13:27:22;6.87;;;2.53;;
22480;SDS011;11407;56.964;-2.212;2024-01-15T13:29:48;5.27;;;1.37;;
22480;SDS011;11407;56.964;-2.212;2024-01-15T13:32:13;3.10;;;2.43;;
22480;SDS011;11407;56.964;-2.212;2024-01-15T13:34:42;3.33;;;1.40;;
22480;SDS011;11407;56.964;-2.212;2024-01-15T13:37:07;6.37;;;2.30;;
22480;SDS011;11407;56.964;-2.212;2024-01-15T13:39:34;2.47;;;1.33;;
22480;SDS011;11407;56.964;-2.212;2024-01-15T13:42:01;2.27;;;1.23;;
22480;SDS011;11407;56.964;-2.212;2024-01-15T13:44:27;6.33;;;1.80;;
22480;SDS011;11407;56.964;-2.212;2024-01-15T13:46:52;3.40;;;1.40;;
22480;SDS011;11407;56.964;-2.212;2024-01-15T13:49:18;5.20;;;1.83;;
22480;SDS011;11407;56.964;-2.212;2024-01-15T13:51:43;5.87;;;1.93;;
22480;SDS011;11407;56.964;-2.212;2024-01-15T13:54:08;6.07;;;1.60;;
22480;SDS011;11407;56.964;-2.212;2024-01-15T13:56:34;8.67;;;1.80;;
22480;SDS011;11407;56.964;-2.212;2024-01-15T13:59:00;3.17;;;1.37;;
22480;SDS011;11407;56.964;-2.212;2024-01-15T14:01:25;5.40;;;1.50;;
22480;SDS011;11407;56.964;-2.212;2024-01-15T14:03:52;2.00;;;1.00;;
22480;SDS011;11407;56.964;-2.212;2024-01-15T14:06:17;3.30;;;1.30;;
22480;SDS011;11407;56.964;-2.212;2024-01-15T14:08:42;4.57;;;1.67;;
22480;SDS011;11407;56.964;-2.212;2024-01-15T14:11:07;1.43;;;1.00;;
22480;SDS011;11407;56.964;-2.212;2024-01-15T14:13:33;4.23;;;1.00;;
22480;SDS011;11407;56.964;-2.212;2024-01-15T14:15:58;2.87;;;1.10;;
22480;SDS011;11407;56.964;-2.212;2024-01-15T14:18:24;3.70;;;1.43;;
22480;SDS011;11407;56.964;-2.212;2024-01-15T14:20:50;4.70;;;1.73;;
22480;SDS011;11407;56.964;-2.212;2024-01-15T14:23:15;4.17;;;1.40;;
22480;SDS011;11407;56.964;-2.212;2024-01-15T14:25:41;2.57;;;1.07;;
22480;SDS011;11407;56.964;-2.212;2024-01-15T14:28:06;2.63;;;0.83;;
22480;SDS011;11407;56.964;-2.212;2024-01-15T14:30:31;2.17;;;0.90;;
22480;SDS011;11407;56.964;-2.212;2024-01-15T14:32:57;2.13;;;0.87;;
22480;SDS011;11407;56.964;-2.212;2024-01-15T14:35:22;2.97;;;1.00;;
22480;SDS011;11407;56.964;-2.212;2024-01-15T14:37:48;0.97;;;0.60;;
22480;SDS011;11407;56.964;-2.212;2024-01-15T14:40:13;1.73;;;0.70;;